Terminal Aerodrome Forecast
Issued by NWS Duluth, MN

Home | Current Version | Previous Version | Text Only | Print | Product List | Glossary On
Versions: 1 2 3 4 5 6 7 8 9 10 11 12 13 14 15 16 17 18 19
000
FTUS43 KDLH 310409 AAC
TAFDLH
TAF AMD
KDLH 310409Z 3104/3124 27009KT P6SM SCT060 WS020/31030KT
     FM311000 28006KT P6SM SKC
     FM311500 28012G17KT P6SM SCT060=

USA.gov is the U.S. government's official web portal to all federal, state and local government web resources and services.